createdAt,value
2018-09-26T00:00:37.000Z,30
2018-09-26T00:01:37.000Z,30
2018-09-26T00:02:37.000Z,30
2018-09-26T00:03:37.000Z,30
2018-09-26T00:04:37.000Z,30
2018-09-26T00:06:37.000Z,30
2018-09-26T00:07:37.000Z,30
2018-09-26T00:08:37.000Z,30
2018-09-26T00:09:37.000Z,30
2018-09-26T00:10:37.000Z,30
2018-09-26T00:11:37.000Z,30
2018-09-26T00:12:37.000Z,30
2018-09-26T00:13:37.000Z,30
2018-09-26T00:14:37.000Z,30
2018-09-26T00:16:37.000Z,30
2018-09-26T00:17:37.000Z,30
2018-09-26T00:18:37.000Z,30
2018-09-26T00:19:37.000Z,30
2018-09-26T00:20:37.000Z,30
2018-09-26T00:21:37.000Z,30
2018-09-26T00:22:37.000Z,30
2018-09-26T00:23:37.000Z,30
2018-09-26T00:25:37.000Z,30
2018-09-26T00:27:37.000Z,30
2018-09-26T00:28:37.000Z,30
2018-09-26T00:29:37.000Z,30
2018-09-26T00:30:37.000Z,30
2018-09-26T00:31:37.000Z,30
2018-09-26T00:32:37.000Z,30
2018-09-26T00:33:37.000Z,30
2018-09-26T00:34:37.000Z,30
2018-09-26T00:35:37.000Z,30
2018-09-26T00:36:37.000Z,30
2018-09-26T00:37:37.000Z,30
2018-09-26T00:38:37.000Z,30
2018-09-26T00:39:37.000Z,30
2018-09-26T00:40:37.000Z,30
2018-09-26T00:42:37.000Z,30
2018-09-26T00:44:37.000Z,30
2018-09-26T00:45:37.000Z,30
2018-09-26T00:46:37.000Z,30
2018-09-26T00:47:37.000Z,30
2018-09-26T00:48:37.000Z,30
2018-09-26T00:49:37.000Z,30
2018-09-26T00:50:37.000Z,30
2018-09-26T00:51:37.000Z,30
2018-09-26T00:52:37.000Z,30
2018-09-26T00:53:37.000Z,30
2018-09-26T00:54:37.000Z,30
2018-09-26T00:55:37.000Z,30
2018-09-26T00:56:38.000Z,30
2018-09-26T00:57:38.000Z,30
2018-09-26T00:59:38.000Z,30
2018-09-26T01:00:38.000Z,30
2018-09-26T01:01:38.000Z,30
2018-09-26T01:02:38.000Z,30
2018-09-26T01:03:38.000Z,30
2018-09-26T01:04:38.000Z,30
2018-09-26T01:05:38.000Z,30
2018-09-26T01:06:38.000Z,30
2018-09-26T01:07:38.000Z,30
2018-09-26T01:08:38.000Z,30
2018-09-26T01:09:38.000Z,30
2018-09-26T01:10:38.000Z,30
2018-09-26T01:11:38.000Z,30
2018-09-26T01:12:38.000Z,30
2018-09-26T01:13:38.000Z,30
2018-09-26T01:14:38.000Z,30
2018-09-26T01:15:38.000Z,30
2018-09-26T01:17:38.000Z,30
2018-09-26T01:18:38.000Z,30
2018-09-26T01:19:38.000Z,30
2018-09-26T01:20:38.000Z,30
2018-09-26T01:21:38.000Z,30
2018-09-26T01:22:38.000Z,30
2018-09-26T01:23:38.000Z,30
2018-09-26T01:24:38.000Z,30
2018-09-26T01:25:38.000Z,30
2018-09-26T01:26:38.000Z,30
2018-09-26T01:27:38.000Z,30
2018-09-26T01:28:38.000Z,30
2018-09-26T01:29:38.000Z,30
2018-09-26T01:30:38.000Z,30
2018-09-26T01:31:38.000Z,30
2018-09-26T01:32:38.000Z,30
2018-09-26T01:33:38.000Z,30
2018-09-26T01:34:38.000Z,30
2018-09-26T01:35:38.000Z,30
2018-09-26T01:36:38.000Z,30
2018-09-26T01:37:38.000Z,30
2018-09-26T01:38:38.000Z,30
2018-09-26T01:39:38.000Z,30
2018-09-26T01:40:38.000Z,30
2018-09-26T01:41:38.000Z,30
2018-09-26T01:42:38.000Z,30
2018-09-26T01:43:38.000Z,30
2018-09-26T01:44:38.000Z,30
2018-09-26T01:45:38.000Z,30
2018-09-26T01:47:38.000Z,30
2018-09-26T01:48:38.000Z,30
2018-09-26T01:49:38.000Z,30
2018-09-26T01:50:38.000Z,30
2018-09-26T01:51:38.000Z,30
2018-09-26T01:52:38.000Z,30
2018-09-26T01:53:38.000Z,30
2018-09-26T01:54:38.000Z,30
2018-09-26T01:55:38.000Z,30
2018-09-26T01:56:38.000Z,30
2018-09-26T01:57:38.000Z,30
2018-09-26T01:58:38.000Z,30
2018-09-26T01:59:37.000Z,30
2018-09-26T02:00:37.000Z,30
2018-09-26T02:01:37.000Z,30
2018-09-26T02:02:37.000Z,30
2018-09-26T02:03:37.000Z,30
2018-09-26T02:04:37.000Z,30
2018-09-26T02:05:37.000Z,30
2018-09-26T02:06:37.000Z,30
2018-09-26T02:07:37.000Z,30
2018-09-26T02:08:37.000Z,30
2018-09-26T02:09:37.000Z,30
2018-09-26T02:10:37.000Z,30
2018-09-26T02:11:37.000Z,30
2018-09-26T02:12:37.000Z,30
2018-09-26T02:13:37.000Z,30
2018-09-26T02:14:37.000Z,30
2018-09-26T02:15:37.000Z,30
2018-09-26T02:17:37.000Z,30
2018-09-26T02:18:37.000Z,30
2018-09-26T02:19:37.000Z,30
2018-09-26T02:20:37.000Z,30
2018-09-26T02:21:37.000Z,30
2018-09-26T02:22:37.000Z,30
2018-09-26T02:23:37.000Z,30
2018-09-26T02:24:37.000Z,30
2018-09-26T02:25:37.000Z,30
2018-09-26T02:26:37.000Z,30
2018-09-26T02:28:37.000Z,30
2018-09-26T02:29:37.000Z,30
2018-09-26T02:31:37.000Z,30
2018-09-26T02:32:37.000Z,30
2018-09-26T02:33:37.000Z,30
2018-09-26T02:34:37.000Z,30
2018-09-26T02:35:37.000Z,30
2018-09-26T02:36:37.000Z,30
2018-09-26T02:37:37.000Z,30
2018-09-26T02:38:37.000Z,30
2018-09-26T02:39:37.000Z,30
2018-09-26T02:40:37.000Z,30
2018-09-26T02:41:37.000Z,30
2018-09-26T02:42:37.000Z,30
2018-09-26T02:43:37.000Z,30
2018-09-26T02:44:37.000Z,30
2018-09-26T02:45:37.000Z,30
2018-09-26T02:46:37.000Z,30
2018-09-26T02:47:37.000Z,30
2018-09-26T02:49:37.000Z,30
2018-09-26T02:50:37.000Z,30
2018-09-26T02:51:37.000Z,30
2018-09-26T02:52:37.000Z,30
2018-09-26T02:53:37.000Z,30
2018-09-26T02:54:37.000Z,30
2018-09-26T02:55:37.000Z,30
2018-09-26T02:56:37.000Z,30
2018-09-26T02:57:37.000Z,30
2018-09-26T02:59:37.000Z,30
2018-09-26T03:00:37.000Z,30
2018-09-26T03:01:37.000Z,30
2018-09-26T03:02:37.000Z,30
2018-09-26T03:04:38.000Z,30
2018-09-26T03:05:38.000Z,30
2018-09-26T03:06:38.000Z,30
2018-09-26T03:07:38.000Z,30
2018-09-26T03:09:38.000Z,30
2018-09-26T03:10:38.000Z,30
2018-09-26T03:11:38.000Z,30
2018-09-26T03:12:38.000Z,30
2018-09-26T03:13:38.000Z,30
2018-09-26T03:14:38.000Z,30
2018-09-26T03:15:38.000Z,30
2018-09-26T03:16:38.000Z,30
2018-09-26T03:18:38.000Z,30
2018-09-26T03:19:38.000Z,30
2018-09-26T03:20:38.000Z,30
2018-09-26T03:21:38.000Z,30
2018-09-26T03:22:38.000Z,30
2018-09-26T03:23:38.000Z,30
2018-09-26T03:24:38.000Z,30
2018-09-26T03:25:38.000Z,30
2018-09-26T03:26:38.000Z,30
2018-09-26T03:28:38.000Z,30
2018-09-26T03:29:38.000Z,30
2018-09-26T03:30:38.000Z,30
2018-09-26T03:31:38.000Z,30
2018-09-26T03:32:38.000Z,30
2018-09-26T03:33:38.000Z,30
2018-09-26T03:34:38.000Z,30
2018-09-26T03:35:38.000Z,30
2018-09-26T03:36:38.000Z,30
2018-09-26T03:37:38.000Z,30
2018-09-26T03:38:38.000Z,30
2018-09-26T03:39:38.000Z,30
2018-09-26T03:41:38.000Z,30
2018-09-26T03:42:38.000Z,30
2018-09-26T03:43:38.000Z,30
2018-09-26T03:44:38.000Z,30
2018-09-26T03:45:38.000Z,30
2018-09-26T03:47:38.000Z,30
2018-09-26T03:48:38.000Z,30
2018-09-26T03:49:38.000Z,30
2018-09-26T03:50:38.000Z,30
2018-09-26T03:51:38.000Z,30
2018-09-26T03:52:38.000Z,30
2018-09-26T03:54:38.000Z,30
2018-09-26T03:55:38.000Z,30
2018-09-26T03:56:38.000Z,30
2018-09-26T03:57:38.000Z,30
2018-09-26T03:58:38.000Z,30
2018-09-26T03:59:38.000Z,30
2018-09-26T04:00:38.000Z,30
2018-09-26T04:01:38.000Z,30
2018-09-26T04:02:38.000Z,30
2018-09-26T04:03:38.000Z,30
2018-09-26T04:04:38.000Z,30
2018-09-26T04:06:38.000Z,30
2018-09-26T04:07:38.000Z,30
2018-09-26T04:08:38.000Z,30
2018-09-26T04:09:38.000Z,30
2018-09-26T04:10:38.000Z,30
2018-09-26T04:11:38.000Z,30
2018-09-26T04:12:38.000Z,30
2018-09-26T04:13:38.000Z,30
2018-09-26T04:14:38.000Z,30
2018-09-26T04:15:38.000Z,30
2018-09-26T04:16:38.000Z,30
2018-09-26T04:18:38.000Z,30
2018-09-26T04:19:38.000Z,30
2018-09-26T04:20:38.000Z,30
2018-09-26T04:21:38.000Z,30
2018-09-26T04:22:38.000Z,30
2018-09-26T04:23:38.000Z,30
2018-09-26T04:25:38.000Z,30
2018-09-26T04:26:38.000Z,30
2018-09-26T04:27:38.000Z,30
2018-09-26T04:28:38.000Z,30
2018-09-26T04:29:38.000Z,30
2018-09-26T04:31:38.000Z,30
2018-09-26T04:32:38.000Z,30
2018-09-26T04:33:38.000Z,30
2018-09-26T04:34:38.000Z,30
2018-09-26T04:35:38.000Z,30
2018-09-26T04:36:38.000Z,30
2018-09-26T04:38:38.000Z,30
2018-09-26T04:39:38.000Z,30
2018-09-26T04:40:38.000Z,30
2018-09-26T04:42:38.000Z,30
2018-09-26T04:43:38.000Z,30
2018-09-26T04:44:38.000Z,30
2018-09-26T04:45:38.000Z,30
2018-09-26T04:46:38.000Z,30
2018-09-26T04:47:38.000Z,30
2018-09-26T04:48:38.000Z,30
2018-09-26T04:49:38.000Z,30
2018-09-26T04:51:38.000Z,30
2018-09-26T04:52:38.000Z,30
2018-09-26T04:53:38.000Z,30
2018-09-26T04:54:38.000Z,30
2018-09-26T04:55:38.000Z,30
2018-09-26T04:56:38.000Z,30
2018-09-26T04:57:38.000Z,30
2018-09-26T04:58:38.000Z,30
2018-09-26T05:00:38.000Z,30
2018-09-26T05:01:38.000Z,30
2018-09-26T05:02:38.000Z,30
2018-09-26T05:03:38.000Z,30
2018-09-26T05:04:38.000Z,30
2018-09-26T05:05:38.000Z,30
2018-09-26T05:06:38.000Z,30
2018-09-26T05:07:38.000Z,30
2018-09-26T05:08:38.000Z,30
2018-09-26T05:09:38.000Z,30
2018-09-26T05:10:37.000Z,30
2018-09-26T05:11:37.000Z,30
2018-09-26T05:12:37.000Z,30
2018-09-26T05:13:37.000Z,30
2018-09-26T05:15:37.000Z,30
2018-09-26T05:16:37.000Z,30
2018-09-26T05:18:37.000Z,30
2018-09-26T05:19:37.000Z,30
2018-09-26T05:20:37.000Z,30
2018-09-26T05:21:37.000Z,30
2018-09-26T05:22:37.000Z,30
2018-09-26T05:23:37.000Z,30
2018-09-26T05:25:37.000Z,30
2018-09-26T05:26:37.000Z,30
2018-09-26T05:27:37.000Z,30
2018-09-26T05:28:37.000Z,30
2018-09-26T05:29:37.000Z,30
2018-09-26T05:31:37.000Z,30
2018-09-26T05:32:37.000Z,30
2018-09-26T05:33:37.000Z,30
2018-09-26T05:34:37.000Z,30
2018-09-26T05:35:37.000Z,30
2018-09-26T05:36:37.000Z,30
2018-09-26T05:37:37.000Z,30
2018-09-26T05:38:37.000Z,30
2018-09-26T05:39:37.000Z,30
2018-09-26T05:40:37.000Z,30
2018-09-26T05:41:37.000Z,30
2018-09-26T05:43:37.000Z,30
2018-09-26T05:44:37.000Z,30
2018-09-26T05:45:37.000Z,30
2018-09-26T05:46:37.000Z,30
2018-09-26T05:47:37.000Z,30
2018-09-26T05:48:37.000Z,30
2018-09-26T05:49:37.000Z,30
2018-09-26T05:50:37.000Z,30
2018-09-26T05:51:37.000Z,30
2018-09-26T05:52:37.000Z,30
2018-09-26T05:54:37.000Z,30
2018-09-26T05:55:37.000Z,30
2018-09-26T05:56:37.000Z,30
2018-09-26T05:57:37.000Z,30
2018-09-26T05:58:37.000Z,30
2018-09-26T05:59:37.000Z,30
2018-09-26T06:00:37.000Z,30
2018-09-26T06:01:37.000Z,30
2018-09-26T06:02:37.000Z,30
2018-09-26T06:03:37.000Z,30
2018-09-26T06:04:37.000Z,30
2018-09-26T06:05:37.000Z,30
2018-09-26T06:06:37.000Z,30
2018-09-26T06:07:37.000Z,30
2018-09-26T06:08:37.000Z,30
2018-09-26T06:09:37.000Z,30
2018-09-26T06:10:37.000Z,30
2018-09-26T06:11:37.000Z,30
2018-09-26T06:12:37.000Z,30
2018-09-26T06:14:37.000Z,30
2018-09-26T06:16:37.000Z,30
2018-09-26T06:18:37.000Z,30
2018-09-26T06:19:37.000Z,30
2018-09-26T06:20:37.000Z,30
2018-09-26T06:21:37.000Z,30
2018-09-26T06:22:37.000Z,30
2018-09-26T06:23:37.000Z,30
2018-09-26T06:24:37.000Z,30
2018-09-26T06:26:37.000Z,30
2018-09-26T06:27:37.000Z,30
2018-09-26T06:28:37.000Z,30
2018-09-26T06:29:37.000Z,30
2018-09-26T06:30:37.000Z,30
2018-09-26T06:31:37.000Z,30
2018-09-26T06:32:37.000Z,30
2018-09-26T06:33:37.000Z,30
2018-09-26T06:34:37.000Z,30
2018-09-26T06:35:37.000Z,29
2018-09-26T06:37:37.000Z,29
2018-09-26T06:38:37.000Z,30
2018-09-26T06:39:37.000Z,29
2018-09-26T06:40:37.000Z,30
2018-09-26T06:41:37.000Z,30
2018-09-26T06:42:37.000Z,30
2018-09-26T06:43:37.000Z,30
2018-09-26T06:44:37.000Z,29
2018-09-26T06:45:37.000Z,30
2018-09-26T06:46:37.000Z,29
2018-09-26T06:47:37.000Z,30
2018-09-26T06:48:37.000Z,30
2018-09-26T06:49:37.000Z,29
2018-09-26T06:50:37.000Z,29
2018-09-26T06:51:37.000Z,30
2018-09-26T06:52:37.000Z,29
2018-09-26T06:54:37.000Z,29
2018-09-26T06:55:37.000Z,29
2018-09-26T06:56:37.000Z,29
2018-09-26T06:57:37.000Z,29
2018-09-26T06:58:37.000Z,29
2018-09-26T06:59:37.000Z,29
2018-09-26T07:00:37.000Z,29
2018-09-26T07:01:37.000Z,29
2018-09-26T07:02:37.000Z,29
2018-09-26T07:03:37.000Z,29
2018-09-26T07:04:37.000Z,29
2018-09-26T07:05:37.000Z,29
2018-09-26T07:06:37.000Z,29
2018-09-26T07:07:37.000Z,29
2018-09-26T07:09:37.000Z,29
2018-09-26T07:10:37.000Z,29
2018-09-26T07:11:37.000Z,29
2018-09-26T07:12:37.000Z,29
2018-09-26T07:13:37.000Z,29
2018-09-26T07:14:37.000Z,29
2018-09-26T07:15:37.000Z,29
2018-09-26T07:16:37.000Z,29
2018-09-26T07:18:37.000Z,29
2018-09-26T07:19:37.000Z,29
2018-09-26T07:20:37.000Z,29
2018-09-26T07:22:37.000Z,29
2018-09-26T07:23:37.000Z,29
2018-09-26T07:24:37.000Z,29
2018-09-26T07:25:37.000Z,29
2018-09-26T07:26:37.000Z,29
2018-09-26T07:27:37.000Z,29
2018-09-26T07:28:37.000Z,29
2018-09-26T07:29:37.000Z,29
2018-09-26T07:30:37.000Z,29
2018-09-26T07:31:37.000Z,29
2018-09-26T07:32:37.000Z,29
2018-09-26T07:33:37.000Z,29
2018-09-26T07:34:37.000Z,29
2018-09-26T07:35:37.000Z,29
2018-09-26T07:36:37.000Z,29
2018-09-26T07:37:37.000Z,29
2018-09-26T07:39:37.000Z,29
2018-09-26T07:40:37.000Z,29
2018-09-26T07:41:37.000Z,29
2018-09-26T07:42:37.000Z,29
2018-09-26T07:44:37.000Z,29
2018-09-26T07:45:37.000Z,29
2018-09-26T07:46:37.000Z,29
2018-09-26T07:47:37.000Z,29
2018-09-26T07:49:37.000Z,29
2018-09-26T07:50:37.000Z,29
2018-09-26T07:52:37.000Z,28
2018-09-26T07:53:37.000Z,29
2018-09-26T07:54:37.000Z,28
2018-09-26T07:55:37.000Z,28
2018-09-26T07:56:37.000Z,28
2018-09-26T07:58:37.000Z,28
2018-09-26T07:59:37.000Z,28
2018-09-26T08:00:37.000Z,28
2018-09-26T08:01:37.000Z,28
2018-09-26T08:02:37.000Z,28
2018-09-26T08:04:37.000Z,28
2018-09-26T08:05:37.000Z,28
2018-09-26T08:06:37.000Z,28
2018-09-26T08:07:37.000Z,28
2018-09-26T08:08:37.000Z,28
2018-09-26T08:09:37.000Z,28
2018-09-26T08:10:37.000Z,28
2018-09-26T08:11:37.000Z,28
2018-09-26T08:12:37.000Z,28
2018-09-26T08:13:37.000Z,28
2018-09-26T08:14:37.000Z,28
2018-09-26T08:15:37.000Z,28
2018-09-26T08:16:37.000Z,27
2018-09-26T08:17:37.000Z,27
2018-09-26T08:18:37.000Z,27
2018-09-26T08:19:37.000Z,27
2018-09-26T08:20:37.000Z,28
2018-09-26T08:21:38.000Z,27
2018-09-26T08:22:38.000Z,28
2018-09-26T08:23:38.000Z,28
2018-09-26T08:24:38.000Z,28
2018-09-26T08:25:38.000Z,28
2018-09-26T08:26:38.000Z,28
2018-09-26T08:28:38.000Z,28
2018-09-26T08:29:38.000Z,28
2018-09-26T08:30:38.000Z,28
2018-09-26T08:31:38.000Z,28
2018-09-26T08:32:38.000Z,28
2018-09-26T08:34:38.000Z,28
2018-09-26T08:35:38.000Z,29
2018-09-26T08:36:38.000Z,29
2018-09-26T08:37:38.000Z,29
2018-09-26T08:38:38.000Z,29
2018-09-26T08:39:38.000Z,29
2018-09-26T08:40:38.000Z,29
2018-09-26T08:41:38.000Z,29
2018-09-26T08:42:38.000Z,29
2018-09-26T08:43:38.000Z,29
2018-09-26T08:44:38.000Z,29
2018-09-26T08:45:38.000Z,29
2018-09-26T08:47:38.000Z,29
2018-09-26T08:48:38.000Z,29
2018-09-26T08:49:38.000Z,29
2018-09-26T08:50:38.000Z,29
2018-09-26T08:51:38.000Z,29
2018-09-26T09:28:56.000Z,31
2018-09-26T09:29:56.000Z,31
2018-09-26T09:31:56.000Z,31
2018-09-26T09:32:56.000Z,31
2018-09-26T09:34:56.000Z,31
2018-09-26T09:36:56.000Z,31
2018-09-26T09:37:56.000Z,31
2018-09-26T09:38:56.000Z,31
2018-09-26T09:39:56.000Z,31
2018-09-26T09:40:56.000Z,31
2018-09-26T09:41:56.000Z,30
2018-09-26T09:42:56.000Z,31
2018-09-26T09:44:56.000Z,30
2018-09-26T09:45:56.000Z,30
2018-09-26T09:46:56.000Z,30
2018-09-26T09:47:56.000Z,30
2018-09-26T09:48:56.000Z,30
2018-09-26T09:49:56.000Z,30
2018-09-26T09:51:56.000Z,30
2018-09-26T09:52:56.000Z,30
2018-09-26T09:53:56.000Z,30
2018-09-26T09:54:56.000Z,30
2018-09-26T09:55:56.000Z,30
2018-09-26T09:56:56.000Z,30
2018-09-26T09:57:56.000Z,30
2018-09-26T09:58:56.000Z,30
2018-09-26T09:59:56.000Z,30
2018-09-26T10:00:56.000Z,30
2018-09-26T10:02:56.000Z,30
2018-09-26T10:03:56.000Z,30
2018-09-26T10:04:56.000Z,30
2018-09-26T10:05:56.000Z,30
2018-09-26T10:06:56.000Z,30
2018-09-26T10:07:56.000Z,30
2018-09-26T10:08:56.000Z,30
2018-09-26T10:10:56.000Z,30
2018-09-26T10:11:56.000Z,30
2018-09-26T10:12:56.000Z,30
2018-09-26T10:13:56.000Z,30
2018-09-26T10:14:56.000Z,30
2018-09-26T10:15:56.000Z,30
2018-09-26T10:16:56.000Z,30
2018-09-26T10:17:56.000Z,30
2018-09-26T10:18:56.000Z,30
2018-09-26T10:19:56.000Z,30
2018-09-26T10:20:56.000Z,30
2018-09-26T10:21:56.000Z,30
2018-09-26T10:22:56.000Z,29
2018-09-26T10:23:56.000Z,29
2018-09-26T10:25:56.000Z,29
2018-09-26T10:26:56.000Z,29
2018-09-26T10:27:56.000Z,29
2018-09-26T10:28:56.000Z,29
2018-09-26T10:29:56.000Z,29
2018-09-26T10:30:56.000Z,29
2018-09-26T10:31:56.000Z,29
2018-09-26T10:33:56.000Z,29
2018-09-26T10:35:56.000Z,29
2018-09-26T10:36:56.000Z,30
2018-09-26T10:37:56.000Z,30
2018-09-26T10:38:56.000Z,30
2018-09-26T10:39:56.000Z,30
2018-09-26T10:40:56.000Z,30
2018-09-26T10:41:56.000Z,30
2018-09-26T10:42:56.000Z,29
2018-09-26T10:43:56.000Z,30
2018-09-26T10:44:56.000Z,29
2018-09-26T10:45:56.000Z,30
2018-09-26T10:46:56.000Z,30
2018-09-26T10:50:42.000Z,30
2018-09-26T10:51:42.000Z,30
2018-09-26T10:52:42.000Z,30
2018-09-26T10:53:42.000Z,30
2018-09-26T10:54:42.000Z,30
2018-09-26T10:55:42.000Z,30
2018-09-26T10:56:42.000Z,30
2018-09-26T10:57:42.000Z,30
2018-09-26T10:58:42.000Z,30
2018-09-26T10:59:42.000Z,30
2018-09-26T11:00:42.000Z,30
2018-09-26T11:01:42.000Z,30
2018-09-26T11:03:42.000Z,30
2018-09-26T11:04:42.000Z,30
2018-09-26T11:05:42.000Z,30
2018-09-26T11:06:42.000Z,30
2018-09-26T11:07:42.000Z,30
2018-09-26T11:08:42.000Z,29
2018-09-26T11:09:42.000Z,30
2018-09-26T11:10:42.000Z,29
2018-09-26T11:11:42.000Z,30
2018-09-26T11:12:42.000Z,30
2018-09-26T11:13:42.000Z,30
2018-09-26T11:14:42.000Z,29
2018-09-26T11:15:42.000Z,30
2018-09-26T11:16:42.000Z,29
2018-09-26T11:17:42.000Z,29
2018-09-26T11:18:42.000Z,29
2018-09-26T11:19:42.000Z,30
2018-09-26T11:20:42.000Z,30
2018-09-26T11:21:42.000Z,30
2018-09-26T11:22:42.000Z,30
2018-09-26T11:23:42.000Z,30
2018-09-26T11:24:42.000Z,30
2018-09-26T11:25:42.000Z,30
2018-09-26T11:26:42.000Z,30
2018-09-26T11:28:42.000Z,30
2018-09-26T11:29:42.000Z,30
2018-09-26T11:30:42.000Z,30
2018-09-26T11:31:42.000Z,30
2018-09-26T11:32:42.000Z,30
2018-09-26T11:33:42.000Z,30
2018-09-26T11:34:42.000Z,30
2018-09-26T11:35:42.000Z,30
2018-09-26T11:37:42.000Z,30
2018-09-26T11:38:42.000Z,31
2018-09-26T11:39:42.000Z,31
2018-09-26T11:40:42.000Z,31
2018-09-26T11:41:42.000Z,31
2018-09-26T11:42:42.000Z,31
2018-09-26T11:43:42.000Z,31
2018-09-26T11:44:42.000Z,31
2018-09-26T11:45:42.000Z,31
2018-09-26T11:46:42.000Z,31
2018-09-26T11:48:42.000Z,31
2018-09-26T11:49:42.000Z,31
2018-09-26T11:50:42.000Z,31
2018-09-26T11:51:42.000Z,31
2018-09-26T11:52:42.000Z,31
2018-09-26T11:53:42.000Z,31
2018-09-26T11:54:42.000Z,31
2018-09-26T11:55:42.000Z,31
2018-09-26T11:56:42.000Z,30
2018-09-26T11:57:42.000Z,30
2018-09-26T11:59:42.000Z,30
2018-09-26T12:00:42.000Z,29
2018-09-26T12:01:42.000Z,29
2018-09-26T12:02:42.000Z,29
2018-09-26T12:03:42.000Z,29
2018-09-26T12:04:42.000Z,29
2018-09-26T12:05:42.000Z,29
2018-09-26T12:06:42.000Z,29
2018-09-26T12:07:42.000Z,28
2018-09-26T12:08:42.000Z,28
2018-09-26T12:09:42.000Z,28
2018-09-26T12:10:42.000Z,28
2018-09-26T12:11:42.000Z,28
2018-09-26T12:12:42.000Z,27
2018-09-26T12:13:42.000Z,27
2018-09-26T12:14:42.000Z,27
2018-09-26T12:15:42.000Z,27
2018-09-26T12:16:42.000Z,27
2018-09-26T12:17:42.000Z,27
2018-09-26T12:18:42.000Z,27
2018-09-26T12:20:42.000Z,26
2018-09-26T12:21:42.000Z,26
2018-09-26T12:22:42.000Z,26
2018-09-26T12:23:42.000Z,26
2018-09-26T12:24:42.000Z,26
2018-09-26T12:26:42.000Z,26
2018-09-26T12:27:42.000Z,26
2018-09-26T12:28:42.000Z,26
2018-09-26T12:30:42.000Z,26
2018-09-26T12:31:42.000Z,26
2018-09-26T12:32:42.000Z,26
2018-09-26T12:33:42.000Z,26
2018-09-26T12:34:42.000Z,26
2018-09-26T12:35:42.000Z,25
2018-09-26T12:36:42.000Z,25
2018-09-26T12:38:42.000Z,25
2018-09-26T12:39:42.000Z,25
2018-09-26T12:40:42.000Z,25
2018-09-26T12:41:42.000Z,25
2018-09-26T12:42:42.000Z,25
2018-09-26T12:43:42.000Z,25
2018-09-26T12:44:42.000Z,25
2018-09-26T12:45:42.000Z,25
2018-09-26T12:46:42.000Z,25
2018-09-26T12:47:42.000Z,25
2018-09-26T12:48:42.000Z,25
2018-09-26T12:49:42.000Z,25
2018-09-26T12:50:42.000Z,25
2018-09-26T12:52:42.000Z,24
2018-09-26T12:53:42.000Z,24
2018-09-26T12:54:42.000Z,24
2018-09-26T12:55:42.000Z,24
2018-09-26T12:56:42.000Z,24
2018-09-26T12:57:42.000Z,24
2018-09-26T12:58:42.000Z,24
2018-09-26T13:00:42.000Z,24
2018-09-26T13:01:42.000Z,24
2018-09-26T13:02:42.000Z,24
2018-09-26T13:03:42.000Z,24
2018-09-26T13:04:42.000Z,24
2018-09-26T13:05:42.000Z,24
2018-09-26T13:06:42.000Z,24
2018-09-26T13:07:42.000Z,24
2018-09-26T13:08:42.000Z,23
2018-09-26T13:09:42.000Z,23
2018-09-26T13:11:42.000Z,23
2018-09-26T13:12:42.000Z,23
2018-09-26T13:13:42.000Z,23
2018-09-26T13:14:42.000Z,23
2018-09-26T13:15:42.000Z,23
2018-09-26T13:16:42.000Z,23
2018-09-26T13:17:42.000Z,23
2018-09-26T13:18:42.000Z,23
2018-09-26T13:19:42.000Z,23
2018-09-26T13:20:42.000Z,23
2018-09-26T13:21:42.000Z,23
2018-09-26T13:22:42.000Z,23
2018-09-26T13:23:42.000Z,23
2018-09-26T13:24:42.000Z,23
2018-09-26T13:25:42.000Z,23
2018-09-26T13:26:42.000Z,23
2018-09-26T13:27:42.000Z,23
2018-09-26T13:28:42.000Z,23
2018-09-26T13:29:42.000Z,23
2018-09-26T13:30:42.000Z,23
2018-09-26T13:32:42.000Z,23
2018-09-26T14:21:47.000Z,26
2018-09-26T14:22:47.000Z,26
2018-09-26T14:23:47.000Z,26
2018-09-26T14:24:47.000Z,26
2018-09-26T14:25:47.000Z,26
2018-09-26T14:26:47.000Z,26
2018-09-26T14:27:47.000Z,26
2018-09-26T14:28:47.000Z,26
2018-09-26T14:29:47.000Z,26
2018-09-26T14:30:47.000Z,26
2018-09-26T14:31:47.000Z,26
2018-09-26T14:41:34.000Z,26
2018-09-26T14:42:34.000Z,26
2018-09-26T14:43:34.000Z,26
2018-09-26T14:44:34.000Z,26
2018-09-26T14:45:34.000Z,26
2018-09-26T14:46:34.000Z,26
2018-09-26T14:47:34.000Z,26
2018-09-26T14:49:34.000Z,26
2018-09-26T14:50:34.000Z,26
2018-09-26T14:51:34.000Z,26
2018-09-26T14:52:34.000Z,26
2018-09-26T14:53:34.000Z,26
2018-09-26T14:54:34.000Z,26
2018-09-26T14:55:34.000Z,26
2018-09-26T14:57:34.000Z,26
2018-09-26T14:58:34.000Z,26
2018-09-26T14:59:34.000Z,26
2018-09-26T15:01:34.000Z,26
2018-09-26T15:02:34.000Z,26
2018-09-26T15:04:34.000Z,26
2018-09-26T15:05:34.000Z,26
2018-09-26T15:06:34.000Z,26
2018-09-26T15:07:34.000Z,26
2018-09-26T15:08:34.000Z,26
2018-09-26T15:10:34.000Z,26
2018-09-26T15:11:34.000Z,26
2018-09-26T15:12:34.000Z,26
2018-09-26T15:13:34.000Z,26
2018-09-26T15:14:34.000Z,26
2018-09-26T15:15:34.000Z,26
2018-09-26T15:16:34.000Z,26
2018-09-26T15:17:34.000Z,26
2018-09-26T15:18:34.000Z,26
2018-09-26T15:19:34.000Z,26
2018-09-26T15:21:34.000Z,26
2018-09-26T15:22:34.000Z,26
2018-09-26T15:23:34.000Z,26
2018-09-26T15:24:34.000Z,26
2018-09-26T15:25:34.000Z,26
2018-09-26T15:27:34.000Z,26
2018-09-26T15:28:34.000Z,26
2018-09-26T15:29:34.000Z,26
2018-09-26T15:30:34.000Z,26
2018-09-26T15:31:34.000Z,26
2018-09-26T15:32:34.000Z,26
2018-09-26T15:33:34.000Z,26
2018-09-26T15:34:34.000Z,26
2018-09-26T15:35:34.000Z,26
2018-09-26T15:36:34.000Z,26
2018-09-26T15:37:34.000Z,26
2018-09-26T15:38:34.000Z,26
2018-09-26T15:39:34.000Z,26
2018-09-26T15:40:34.000Z,26
2018-09-26T15:41:34.000Z,26
2018-09-26T15:43:34.000Z,26
2018-09-26T15:45:34.000Z,26
2018-09-26T15:46:34.000Z,26
2018-09-26T15:47:34.000Z,26
2018-09-26T15:48:34.000Z,26
2018-09-26T15:49:34.000Z,26
2018-09-26T15:50:34.000Z,26
2018-09-26T15:51:34.000Z,26
2018-09-26T15:52:34.000Z,26
2018-09-26T15:53:34.000Z,26
2018-09-26T15:54:34.000Z,26
2018-09-26T15:55:34.000Z,26
2018-09-26T15:56:34.000Z,26
2018-09-26T15:57:34.000Z,26
2018-09-26T15:58:34.000Z,26
2018-09-26T15:59:34.000Z,26
2018-09-26T16:00:34.000Z,26
2018-09-26T16:01:34.000Z,26
2018-09-26T16:02:34.000Z,26
2018-09-26T16:03:34.000Z,26
2018-09-26T16:04:34.000Z,26
2018-09-26T16:06:34.000Z,26
2018-09-26T16:07:34.000Z,26
2018-09-26T16:08:34.000Z,26
2018-09-26T16:09:34.000Z,26
2018-09-26T16:10:34.000Z,26
2018-09-26T16:11:34.000Z,26
2018-09-26T16:12:34.000Z,26
2018-09-26T16:13:34.000Z,26
2018-09-26T16:15:34.000Z,26
2018-09-26T16:16:34.000Z,26
2018-09-26T16:17:34.000Z,26
2018-09-26T16:18:34.000Z,26
2018-09-26T16:19:34.000Z,26
2018-09-26T16:20:34.000Z,26
2018-09-26T16:21:34.000Z,26
2018-09-26T16:22:34.000Z,26
2018-09-26T16:23:34.000Z,26
2018-09-26T16:24:34.000Z,26
2018-09-26T16:25:34.000Z,26
2018-09-26T16:27:34.000Z,26
2018-09-26T16:28:34.000Z,26
2018-09-26T16:29:34.000Z,26
2018-09-26T16:31:34.000Z,26
2018-09-26T16:32:34.000Z,26
2018-09-26T16:33:34.000Z,27
2018-09-26T16:34:34.000Z,27
2018-09-26T16:36:34.000Z,26
2018-09-26T16:37:34.000Z,26
2018-09-26T16:38:34.000Z,26
2018-09-26T16:40:34.000Z,26
2018-09-26T16:41:34.000Z,27
2018-09-26T16:42:34.000Z,27
2018-09-26T16:43:34.000Z,27
2018-09-26T16:44:34.000Z,26
2018-09-26T16:45:34.000Z,27
2018-09-26T16:46:34.000Z,26
2018-09-26T16:47:34.000Z,27
2018-09-26T16:48:34.000Z,26
2018-09-26T16:50:34.000Z,26
2018-09-26T16:51:34.000Z,27
2018-09-26T16:53:34.000Z,27
2018-09-26T16:54:34.000Z,27
2018-09-26T16:56:34.000Z,27
2018-09-26T16:57:34.000Z,27
2018-09-26T16:58:34.000Z,27
2018-09-26T16:59:34.000Z,27
2018-09-26T17:00:34.000Z,27
2018-09-26T17:01:34.000Z,27
2018-09-26T17:03:34.000Z,27
2018-09-26T17:04:34.000Z,27
2018-09-26T17:05:34.000Z,27
2018-09-26T17:06:34.000Z,27
2018-09-26T17:07:34.000Z,27
2018-09-26T17:09:34.000Z,27
2018-09-26T17:10:34.000Z,27
2018-09-26T17:11:34.000Z,27
2018-09-26T17:12:34.000Z,27
2018-09-26T17:13:34.000Z,27
2018-09-26T17:14:34.000Z,27
2018-09-26T17:15:34.000Z,27
2018-09-26T17:16:34.000Z,27
2018-09-26T17:17:34.000Z,27
2018-09-26T17:18:34.000Z,27
2018-09-26T17:28:20.000Z,28
2018-09-26T17:30:58.000Z,28
2018-09-26T17:31:58.000Z,28
2018-09-26T17:33:58.000Z,28
2018-09-26T17:34:58.000Z,28
2018-09-26T17:35:58.000Z,27
2018-09-26T17:36:58.000Z,27
2018-09-26T17:37:58.000Z,27
2018-09-26T17:38:58.000Z,27